Time;durP1;ratioP1;P1;durP2;ratioP2;P2;SDS_P1;SDS_P2;PMS_P1;PMS_P2;Temp;Humidity;BMP_temperature;BMP_pressure;BME280_temperature;BME280_humidity;BME280_pressure;Samples;Min_cycle;Max_cycle;Signal;HPM_P1;HPM_P2
2021/06/21 00:00:21;;;;;;;5.15;2.25;;;;;;;;;;5111445;27;20533;-43
2021/06/21 00:02:46;;;;;;;2.13;1.10;;;;;;;;;;5100250;27;20004;-46
2021/06/21 00:05:12;;;;;;;13.52;2.65;;;;;;;;;;5103174;27;20027;-50
2021/06/21 00:07:38;;;;;;;2.83;2.10;;;;;;;;;;5101347;27;20047;-46
2021/06/21 00:10:04;;;;;;;9.75;3.28;;;;;;;;;;5098647;27;20019;-45
2021/06/21 00:12:29;;;;;;;7.07;2.70;;;;;;;;;;5101452;27;20074;-46
2021/06/21 00:14:55;;;;;;;13.77;3.05;;;;;;;;;;5106389;27;20474;-48
2021/06/21 00:17:20;;;;;;;5.93;3.08;;;;;;;;;;5110564;27;20023;-44
2021/06/21 00:19:45;;;;;;;4.75;2.63;;;;;;;;;;5107423;27;20073;-44
2021/06/21 00:22:11;;;;;;;8.23;2.97;;;;;;;;;;5103292;27;20028;-46
2021/06/21 00:24:36;;;;;;;10.13;3.65;;;;;;;;;;5102168;27;20088;-46
2021/06/21 00:27:02;;;;;;;10.18;3.20;;;;;;;;;;5105039;27;20466;-46
2021/06/21 00:29:27;;;;;;;10.00;2.65;;;;;;;;;;5108079;27;20022;-46
2021/06/21 00:31:52;;;;;;;8.07;2.80;;;;;;;;;;5106339;27;20029;-50
2021/06/21 00:34:17;;;;;;;3.45;1.92;;;;;;;;;;5101512;27;20455;-51
2021/06/21 00:36:43;;;;;;;6.38;3.60;;;;;;;;;;5102406;27;20024;-54
2021/06/21 00:39:09;;;;;;;8.13;3.08;;;;;;;;;;5099700;27;20024;-51
2021/06/21 00:41:35;;;;;;;7.53;3.17;;;;;;;;;;5098665;27;20048;-53
2021/06/21 00:44:00;;;;;;;6.40;2.35;;;;;;;;;;5098089;27;20016;-52
2021/06/21 00:46:26;;;;;;;16.83;3.38;;;;;;;;;;5104306;27;20677;-52
2021/06/21 00:48:51;;;;;;;8.88;4.13;;;;;;;;;;5106587;27;20090;-51
2021/06/21 00:51:16;;;;;;;4.88;2.55;;;;;;;;;;5107540;27;20629;-52
2021/06/21 00:53:42;;;;;;;5.47;2.45;;;;;;;;;;5109421;27;20032;-61
2021/06/21 00:56:08;;;;;;;4.68;1.92;;;;;;;;;;5105096;27;20024;-61
2021/06/21 00:58:33;;;;;;;4.13;2.17;;;;;;;;;;5102089;27;20024;-61
2021/06/21 01:00:58;;;;;;;10.50;3.42;;;;;;;;;;5099742;27;20469;-61
2021/06/21 01:03:23;;;;;;;3.53;1.73;;;;;;;;;;5103274;27;20523;-61
2021/06/21 01:05:49;;;;;;;14.05;2.45;;;;;;;;;;5103720;27;20095;-61
2021/06/21 01:08:14;;;;;;;4.95;2.22;;;;;;;;;;5100868;27;20075;-61
2021/06/21 01:10:41;;;;;;;1.73;1.23;;;;;;;;;;5101171;27;20020;-62
2021/06/21 01:13:06;;;;;;;8.75;2.45;;;;;;;;;;5103243;27;20023;-62
2021/06/21 01:15:34;;;;;;;5.10;2.03;;;;;;;;;;5100906;28;20023;-62
2021/06/21 01:18:05;;;;;;;8.65;1.75;;;;;;;;;;5097364;27;20052;-61
2021/06/21 01:20:50;;;;;;;6.45;2.25;;;;;;;;;;5098333;28;20027;-61
2021/06/21 01:23:18;;;;;;;7.13;2.33;;;;;;;;;;5107156;27;20363;-62
2021/06/21 01:26:09;;;;;;;6.60;2.45;;;;;;;;;;5100769;27;20032;-61
2021/06/21 01:28:56;;;;;;;4.13;1.35;;;;;;;;;;5100671;27;20038;-62
2021/06/21 01:31:24;;;;;;;5.95;1.95;;;;;;;;;;5101512;27;20028;-61
2021/06/21 01:33:51;;;;;;;3.92;1.10;;;;;;;;;;5100776;27;20096;-60
2021/06/21 01:36:17;;;;;;;3.63;1.73;;;;;;;;;;5102475;27;20016;-59
2021/06/21 01:38:49;;;;;;;8.10;2.83;;;;;;;;;;5105807;27;20490;-59
2021/06/21 01:41:30;;;;;;;1.88;1.33;;;;;;;;;;5100216;27;20444;-59
2021/06/21 01:43:58;;;;;;;3.75;2.40;;;;;;;;;;5103392;27;20015;-59
2021/06/21 01:46:25;;;;;;;6.95;2.40;;;;;;;;;;5113685;27;20734;-58
2021/06/21 01:48:54;;;;;;;4.57;2.70;;;;;;;;;;5111186;27;20467;-59
2021/06/21 01:51:21;;;;;;;4.22;2.75;;;;;;;;;;5104853;27;20031;-59
2021/06/21 01:53:47;;;;;;;6.07;2.22;;;;;;;;;;5101881;27;20103;-59
2021/06/21 01:56:20;;;;;;;5.05;2.22;;;;;;;;;;5101938;28;20031;-59
2021/06/21 01:58:47;;;;;;;12.80;3.67;;;;;;;;;;5101868;28;20107;-59
2021/06/21 02:01:17;;;;;;;7.55;3.55;;;;;;;;;;5101536;28;20034;-60
2021/06/21 02:03:50;;;;;;;10.73;4.28;;;;;;;;;;5106016;28;20102;-58
2021/06/21 02:06:15;;;;;;;11.05;4.18;;;;;;;;;;5101005;28;20022;-58
2021/06/21 02:08:41;;;;;;;8.35;4.63;;;;;;;;;;5101639;28;20020;-59
2021/06/21 02:11:08;;;;;;;9.73;4.15;;;;;;;;;;5097845;28;20024;-58
2021/06/21 02:13:34;;;;;;;15.25;3.95;;;;;;;;;;5102303;28;20073;-59
2021/06/21 02:16:00;;;;;;;11.02;4.85;;;;;;;;;;5105731;27;20099;-60
2021/06/21 02:18:26;;;;;;;17.95;5.03;;;;;;;;;;5108357;27;20620;-60
2021/06/21 02:20:53;;;;;;;7.53;3.80;;;;;;;;;;5098007;28;20019;-61
2021/06/21 02:23:20;;;;;;;7.80;3.75;;;;;;;;;;5105284;27;20011;-62
2021/06/21 02:25:45;;;;;;;7.47;3.47;;;;;;;;;;5106482;27;20028;-36
2021/06/21 02:28:11;;;;;;;8.10;2.17;;;;;;;;;;5104169;27;20023;-37
2021/06/21 02:30:37;;;;;;;3.08;2.45;;;;;;;;;;5103172;27;20020;-36
2021/06/21 02:33:02;;;;;;;6.95;4.18;;;;;;;;;;5103750;27;20502;-37
2021/06/21 02:35:28;;;;;;;8.57;3.17;;;;;;;;;;5103015;27;20040;-36
2021/06/21 02:37:53;;;;;;;8.70;3.38;;;;;;;;;;5102958;27;20042;-36
2021/06/21 02:40:19;;;;;;;5.93;2.58;;;;;;;;;;5107661;27;20431;-37
2021/06/21 02:42:44;;;;;;;10.30;3.35;;;;;;;;;;5106649;27;20099;-36
2021/06/21 02:45:10;;;;;;;5.05;2.58;;;;;;;;;;5108531;27;20027;-36
2021/06/21 02:47:35;;;;;;;4.25;2.60;;;;;;;;;;5104193;27;20686;-36
2021/06/21 02:50:01;;;;;;;4.65;2.03;;;;;;;;;;5105574;27;20008;-37
2021/06/21 02:52:28;;;;;;;3.58;1.92;;;;;;;;;;5110126;27;20057;-36
2021/06/21 02:55:14;;;;;;;2.75;1.83;;;;;;;;;;5102253;27;20541;-36
2021/06/21 02:57:42;;;;;;;1.77;1.20;;;;;;;;;;5105649;27;20472;-37
2021/06/21 03:00:08;;;;;;;3.88;1.60;;;;;;;;;;5104240;27;20408;-36
2021/06/21 03:02:34;;;;;;;6.72;1.85;;;;;;;;;;5101560;27;20019;-36
2021/06/21 03:04:59;;;;;;;5.97;1.50;;;;;;;;;;5096940;27;20047;-36
2021/06/21 03:07:26;;;;;;;2.92;1.80;;;;;;;;;;5107709;27;20537;-37
2021/06/21 03:09:51;;;;;;;7.70;2.60;;;;;;;;;;5102072;27;20472;-36
2021/06/21 03:12:25;;;;;;;2.92;1.45;;;;;;;;;;5107890;27;20042;-36
2021/06/21 03:14:50;;;;;;;5.00;2.30;;;;;;;;;;5104133;27;20118;-37
2021/06/21 03:17:16;;;;;;;20.20;2.28;;;;;;;;;;5102616;27;20031;-36
2021/06/21 03:19:42;;;;;;;5.45;2.22;;;;;;;;;;5106466;27;20027;-35
2021/06/21 03:22:08;;;;;;;3.75;2.03;;;;;;;;;;5103155;27;20541;-35
2021/06/21 03:24:33;;;;;;;3.33;1.80;;;;;;;;;;5102538;27;20110;-35
2021/06/21 03:26:58;;;;;;;7.00;2.15;;;;;;;;;;5101286;27;20501;-35
2021/06/21 03:29:24;;;;;;;5.85;2.10;;;;;;;;;;5103851;27;20024;-35
2021/06/21 03:31:51;;;;;;;1.85;1.33;;;;;;;;;;5111942;27;20425;-35
2021/06/21 03:34:17;;;;;;;3.75;2.08;;;;;;;;;;5108239;27;20027;-35
2021/06/21 03:36:43;;;;;;;2.55;1.75;;;;;;;;;;5109103;27;20031;-35
2021/06/21 03:39:09;;;;;;;7.75;2.38;;;;;;;;;;5099971;27;20048;-35
2021/06/21 03:41:34;;;;;;;4.57;2.00;;;;;;;;;;5099106;27;20497;-35
2021/06/21 03:43:59;;;;;;;3.55;2.35;;;;;;;;;;5099454;27;20020;-35
2021/06/21 03:46:25;;;;;;;3.28;1.70;;;;;;;;;;5102362;27;20475;-35
2021/06/21 03:48:50;;;;;;;5.60;2.88;;;;;;;;;;5100485;27;20024;-35
2021/06/21 03:51:15;;;;;;;6.75;1.92;;;;;;;;;;5106436;27;20011;-35
2021/06/21 03:53:41;;;;;;;1.90;1.45;;;;;;;;;;5102792;27;20141;-35
2021/06/21 03:56:06;;;;;;;6.63;2.33;;;;;;;;;;5102647;27;20027;-35
2021/06/21 03:58:31;;;;;;;2.88;1.75;;;;;;;;;;5103928;27;20023;-35
2021/06/21 04:00:57;;;;;;;1.63;1.25;;;;;;;;;;5114842;27;20027;-35
2021/06/21 04:03:23;;;;;;;3.10;1.27;;;;;;;;;;5110660;27;20019;-35
2021/06/21 04:05:49;;;;;;;7.35;2.10;;;;;;;;;;5101077;27;20155;-35
2021/06/21 04:08:14;;;;;;;5.30;1.85;;;;;;;;;;5106058;27;20124;-35
2021/06/21 04:10:40;;;;;;;2.42;2.20;;;;;;;;;;5105684;27;20071;-35
2021/06/21 04:13:07;;;;;;;108.40;84.43;;;;;;;;;;5106229;27;20031;-35
2021/06/21 04:15:32;;;;;;;11.38;5.05;;;;;;;;;;5095620;27;20023;-35
2021/06/21 04:17:58;;;;;;;4.40;2.72;;;;;;;;;;5099535;27;20023;-35
2021/06/21 04:20:24;;;;;;;10.60;2.05;;;;;;;;;;5096970;27;20020;-35
2021/06/21 04:22:50;;;;;;;5.32;3.05;;;;;;;;;;5101620;27;20501;-35
2021/06/21 04:25:16;;;;;;;13.05;1.85;;;;;;;;;;5106446;27;20102;-36
2021/06/21 04:27:41;;;;;;;1.52;1.02;;;;;;;;;;5102754;27;20112;-35
2021/06/21 04:30:08;;;;;;;9.43;2.30;;;;;;;;;;5103339;27;20062;-35
2021/06/21 04:32:33;;;;;;;5.55;1.73;;;;;;;;;;5102307;27;20031;-36
2021/06/21 04:34:59;;;;;;;5.25;3.38;;;;;;;;;;5104651;27;20031;-36
2021/06/21 04:37:24;;;;;;;4.95;2.67;;;;;;;;;;5105418;27;20020;-35
2021/06/21 04:39:49;;;;;;;4.55;3.03;;;;;;;;;;5104012;27;20467;-35
2021/06/21 04:42:15;;;;;;;4.72;2.10;;;;;;;;;;5100074;27;20043;-35
2021/06/21 04:44:40;;;;;;;5.75;2.65;;;;;;;;;;5103177;27;20047;-35
2021/06/21 04:47:05;;;;;;;2.83;1.27;;;;;;;;;;5104812;27;20022;-35
2021/06/21 04:49:31;;;;;;;7.88;1.63;;;;;;;;;;5098171;27;20502;-35
2021/06/21 04:51:57;;;;;;;4.07;2.42;;;;;;;;;;5105150;28;20024;-35
2021/06/21 04:54:22;;;;;;;6.53;1.02;;;;;;;;;;5102450;27;20074;-36
2021/06/21 04:56:48;;;;;;;6.93;2.00;;;;;;;;;;5103405;27;20051;-35
2021/06/21 04:59:13;;;;;;;3.83;1.70;;;;;;;;;;5106394;27;20027;-35
2021/06/21 05:01:39;;;;;;;7.00;2.10;;;;;;;;;;5100593;27;20028;-35
2021/06/21 05:04:05;;;;;;;14.90;2.92;;;;;;;;;;5108747;27;20065;-36
2021/06/21 05:06:37;;;;;;;2.78;1.88;;;;;;;;;;5102869;27;20039;-36
2021/06/21 05:09:03;;;;;;;4.45;1.73;;;;;;;;;;5101282;27;20060;-36
2021/06/21 05:11:29;;;;;;;12.98;10.30;;;;;;;;;;5099250;27;20028;-35
2021/06/21 05:13:55;;;;;;;4.32;2.55;;;;;;;;;;5100740;27;20016;-35
2021/06/21 05:16:20;;;;;;;14.00;2.72;;;;;;;;;;5105420;27;20016;-35
2021/06/21 05:18:46;;;;;;;4.55;1.77;;;;;;;;;;5108961;27;20066;-36
2021/06/21 05:21:11;;;;;;;2.03;1.50;;;;;;;;;;5107447;27;20445;-36
2021/06/21 05:23:36;;;;;;;2.85;1.98;;;;;;;;;;5103183;27;20104;-36
2021/06/21 05:26:02;;;;;;;7.78;1.45;;;;;;;;;;5100501;27;20043;-35
2021/06/21 05:28:27;;;;;;;7.03;2.55;;;;;;;;;;5096728;28;20479;-35
2021/06/21 05:30:52;;;;;;;5.75;1.80;;;;;;;;;;5102569;27;20055;-35
2021/06/21 05:33:18;;;;;;;1.50;1.10;;;;;;;;;;5101955;27;20030;-34
2021/06/21 05:35:43;;;;;;;7.28;2.63;;;;;;;;;;5097238;27;20148;-34
2021/06/21 05:38:09;;;;;;;3.72;2.33;;;;;;;;;;5095987;27;20447;-34
2021/06/21 05:40:34;;;;;;;4.78;3.22;;;;;;;;;;5096630;27;20470;-34
2021/06/21 05:42:59;;;;;;;4.95;3.40;;;;;;;;;;5099229;27;20098;-34
2021/06/21 05:45:25;;;;;;;6.18;2.38;;;;;;;;;;5103344;27;20447;-34
2021/06/21 05:47:50;;;;;;;2.78;2.17;;;;;;;;;;5111188;27;20040;-34
2021/06/21 05:50:15;;;;;;;13.40;2.42;;;;;;;;;;5107376;27;20016;-34
2021/06/21 05:52:41;;;;;;;2.90;2.10;;;;;;;;;;5104119;27;20068;-34
2021/06/21 05:55:07;;;;;;;11.82;2.38;;;;;;;;;;5100152;28;20467;-34
2021/06/21 05:57:32;;;;;;;5.88;2.00;;;;;;;;;;5107168;27;20429;-34
2021/06/21 05:59:58;;;;;;;9.82;2.78;;;;;;;;;;5101671;28;20522;-34
2021/06/21 06:02:25;;;;;;;65.63;10.30;;;;;;;;;;5102343;28;20562;-34
2021/06/21 06:04:51;;;;;;;70.38;14.60;;;;;;;;;;5094695;27;20023;-34
2021/06/21 06:07:16;;;;;;;8.70;4.65;;;;;;;;;;5099236;28;20039;-34
2021/06/21 06:09:41;;;;;;;13.55;4.32;;;;;;;;;;5095444;28;20026;-34
2021/06/21 06:12:07;;;;;;;42.83;14.98;;;;;;;;;;5102445;28;20099;-34
2021/06/21 06:14:32;;;;;;;107.63;32.17;;;;;;;;;;5104815;28;20050;-34
2021/06/21 06:16:58;;;;;;;30.70;17.50;;;;;;;;;;5099122;28;20028;-34
2021/06/21 06:19:23;;;;;;;39.08;17.25;;;;;;;;;;5098712;27;20027;-34
2021/06/21 06:21:49;;;;;;;32.67;13.52;;;;;;;;;;5102008;28;20467;-34
2021/06/21 06:24:14;;;;;;;31.13;14.95;;;;;;;;;;5100640;28;20016;-33
2021/06/21 06:26:42;;;;;;;35.50;14.57;;;;;;;;;;5102217;28;20023;-33
2021/06/21 06:29:08;;;;;;;30.58;12.50;;;;;;;;;;5091162;28;20110;-33
2021/06/21 06:31:33;;;;;;;17.88;10.98;;;;;;;;;;5099686;28;20161;-33
2021/06/21 06:33:59;;;;;;;15.55;9.80;;;;;;;;;;5098577;28;20024;-33
2021/06/21 06:36:24;;;;;;;29.05;9.15;;;;;;;;;;5090663;28;20150;-34
2021/06/21 06:38:49;;;;;;;10.88;5.90;;;;;;;;;;5099407;28;20061;-33
2021/06/21 06:41:15;;;;;;;14.93;6.55;;;;;;;;;;5097525;28;20035;-33
2021/06/21 06:43:40;;;;;;;6.88;3.47;;;;;;;;;;5099933;28;20019;-33
2021/06/21 06:46:05;;;;;;;20.15;8.88;;;;;;;;;;5096401;28;20493;-34
2021/06/21 06:48:31;;;;;;;8.45;5.97;;;;;;;;;;5098866;28;20028;-34
2021/06/21 06:50:56;;;;;;;30.90;17.60;;;;;;;;;;5101276;27;20032;-34
2021/06/21 06:53:28;;;;;;;15.70;7.25;;;;;;;;;;5099246;28;20471;-34
2021/06/21 06:58:37;;;;;;;19.85;5.32;;;;;;;;;;5098998;28;20741;-34
2021/06/21 07:01:03;;;;;;;4.63;2.78;;;;;;;;;;5096747;28;20027;-35
2021/06/21 07:03:28;;;;;;;15.77;5.97;;;;;;;;;;5094893;28;20091;-34
2021/06/21 07:05:54;;;;;;;11.40;3.78;;;;;;;;;;5103608;28;20028;-34
2021/06/21 07:08:19;;;;;;;12.98;4.10;;;;;;;;;;5102297;28;20043;-34
2021/06/21 07:10:44;;;;;;;18.10;4.68;;;;;;;;;;5099225;27;20451;-34
2021/06/21 07:13:10;;;;;;;7.60;2.70;;;;;;;;;;5100154;27;20024;-34
2021/06/21 07:15:35;;;;;;;26.73;5.20;;;;;;;;;;5103070;27;20028;-34
2021/06/21 07:18:00;;;;;;;9.82;5.53;;;;;;;;;;5104578;27;20015;-34
2021/06/21 07:20:25;;;;;;;256.60;43.05;;;;;;;;;;5100048;27;20415;-34
2021/06/21 07:22:51;;;;;;;163.02;31.80;;;;;;;;;;5100984;27;20020;-34
2021/06/21 07:25:16;;;;;;;75.10;20.35;;;;;;;;;;5102697;27;20515;-34
2021/06/21 07:27:42;;;;;;;24.60;6.38;;;;;;;;;;5102237;27;20026;-34
2021/06/21 07:30:08;;;;;;;23.15;7.95;;;;;;;;;;5102650;27;20370;-34
2021/06/21 07:32:33;;;;;;;9.93;4.93;;;;;;;;;;5105053;27;20671;-34
2021/06/21 07:34:58;;;;;;;13.05;4.28;;;;;;;;;;5102627;27;20051;-35
2021/06/21 07:37:24;;;;;;;14.57;3.60;;;;;;;;;;5102773;27;20028;-34
2021/06/21 07:39:49;;;;;;;3.70;2.22;;;;;;;;;;5098791;27;20147;-34
2021/06/21 07:42:14;;;;;;;31.88;5.25;;;;;;;;;;5101375;27;20475;-34
2021/06/21 07:44:39;;;;;;;14.52;4.10;;;;;;;;;;5102030;27;20016;-35
2021/06/21 07:47:06;;;;;;;16.17;4.65;;;;;;;;;;5101317;27;20097;-35
2021/06/21 07:49:32;;;;;;;10.65;3.33;;;;;;;;;;5101450;27;20100;-35
2021/06/21 07:51:57;;;;;;;4.47;2.30;;;;;;;;;;5102868;27;20099;-35
2021/06/21 07:54:23;;;;;;;5.68;2.25;;;;;;;;;;5100026;27;20571;-41
2021/06/21 07:56:48;;;;;;;8.23;3.22;;;;;;;;;;5098725;27;20019;-41
2021/06/21 07:59:13;;;;;;;18.02;4.95;;;;;;;;;;5102377;27;20032;-41
2021/06/21 08:01:39;;;;;;;3.58;2.15;;;;;;;;;;5101008;27;20036;-41
2021/06/21 08:04:04;;;;;;;4.43;2.30;;;;;;;;;;5097464;27;20077;-41
2021/06/21 08:06:29;;;;;;;23.25;2.85;;;;;;;;;;5103688;27;20154;-41
2021/06/21 08:08:55;;;;;;;6.40;3.85;;;;;;;;;;5096351;27;20459;-41
2021/06/21 08:11:20;;;;;;;12.57;3.47;;;;;;;;;;5101569;27;20027;-41
2021/06/21 08:13:45;;;;;;;5.13;1.55;;;;;;;;;;5105833;27;20471;-41
2021/06/21 08:16:11;;;;;;;3.30;2.03;;;;;;;;;;5101843;27;20051;-41
2021/06/21 08:18:36;;;;;;;5.35;2.03;;;;;;;;;;5100701;27;20073;-41
2021/06/21 08:21:02;;;;;;;5.95;2.53;;;;;;;;;;5095776;27;20027;-43
2021/06/21 08:23:30;;;;;;;13.13;2.28;;;;;;;;;;5095191;28;20020;-41
2021/06/21 08:25:55;;;;;;;3.35;1.15;;;;;;;;;;5104013;27;20019;-42
2021/06/21 08:28:20;;;;;;;2.72;0.88;;;;;;;;;;5103455;27;20411;-44
2021/06/21 08:30:47;;;;;;;2.60;0.90;;;;;;;;;;5100683;28;20096;-43
2021/06/21 08:33:12;;;;;;;2.75;1.35;;;;;;;;;;5102374;27;20031;-43
2021/06/21 08:35:37;;;;;;;3.45;1.67;;;;;;;;;;5099734;27;20028;-43
2021/06/21 08:38:04;;;;;;;13.15;2.83;;;;;;;;;;5094637;27;20547;-43
2021/06/21 08:40:31;;;;;;;17.83;2.42;;;;;;;;;;5104862;27;20041;-43
2021/06/21 08:42:56;;;;;;;6.43;1.92;;;;;;;;;;5099698;27;20489;-44
2021/06/21 08:45:22;;;;;;;7.80;2.65;;;;;;;;;;5100679;27;20036;-44
2021/06/21 08:47:47;;;;;;;7.70;1.95;;;;;;;;;;5097550;27;20016;-44
2021/06/21 08:50:17;;;;;;;9.20;2.00;;;;;;;;;;5103230;27;20591;-44
2021/06/21 08:52:43;;;;;;;3.70;2.00;;;;;;;;;;5099740;27;20015;-46
2021/06/21 08:55:08;;;;;;;7.13;1.75;;;;;;;;;;5101578;27;20108;-42
2021/06/21 08:57:35;;;;;;;9.45;1.88;;;;;;;;;;5096057;27;20048;-43
2021/06/21 09:00:01;;;;;;;4.45;2.70;;;;;;;;;;5106484;27;20474;-43
2021/06/21 09:02:27;;;;;;;4.55;2.15;;;;;;;;;;5101691;27;20020;-43
2021/06/21 09:04:53;;;;;;;4.28;1.90;;;;;;;;;;5102548;27;20027;-44
2021/06/21 09:07:19;;;;;;;4.35;2.17;;;;;;;;;;5096183;27;20039;-44
2021/06/21 09:09:45;;;;;;;5.45;2.00;;;;;;;;;;5097829;27;20016;-35
2021/06/21 09:12:11;;;;;;;5.47;2.13;;;;;;;;;;5099079;27;20020;-44
2021/06/21 09:14:37;;;;;;;10.02;1.55;;;;;;;;;;5100955;27;20035;-44
2021/06/21 09:17:04;;;;;;;5.20;2.72;;;;;;;;;;5096276;27;20019;-36
2021/06/21 09:19:30;;;;;;;5.53;1.63;;;;;;;;;;5108645;27;20510;-47
2021/06/21 09:21:56;;;;;;;6.82;2.00;;;;;;;;;;5103240;27;20027;-47
2021/06/21 09:24:26;;;;;;;7.50;1.80;;;;;;;;;;5095907;27;20027;-48
2021/06/21 09:27:01;;;;;;;13.35;2.13;;;;;;;;;;5100815;27;20031;-48
2021/06/21 09:29:33;;;;;;;6.50;1.67;;;;;;;;;;5103149;27;20110;-48
2021/06/21 09:31:59;;;;;;;1.88;1.23;;;;;;;;;;5100738;27;20024;-49
2021/06/21 09:34:25;;;;;;;14.90;3.88;;;;;;;;;;5102811;27;20057;-48
2021/06/21 09:36:51;;;;;;;2.33;1.20;;;;;;;;;;5096416;28;20027;-48
2021/06/21 09:39:17;;;;;;;6.35;3.22;;;;;;;;;;5097794;27;20028;-48
2021/06/21 09:41:43;;;;;;;5.50;1.60;;;;;;;;;;5101520;27;20107;-48
2021/06/21 09:44:08;;;;;;;3.60;2.33;;;;;;;;;;5094541;28;20020;-49
2021/06/21 09:46:33;;;;;;;22.30;4.78;;;;;;;;;;5099474;27;20390;-48
2021/06/21 09:48:58;;;;;;;12.52;2.88;;;;;;;;;;5098962;27;20486;-48
2021/06/21 09:51:30;;;;;;;11.15;2.22;;;;;;;;;;5098658;27;20038;-48
2021/06/21 09:54:11;;;;;;;3.97;2.17;;;;;;;;;;5096254;28;20024;-48
2021/06/21 09:56:45;;;;;;;4.95;2.90;;;;;;;;;;5104256;27;20027;-48
2021/06/21 09:59:20;;;;;;;8.82;2.35;;;;;;;;;;5100448;28;20027;-49
2021/06/21 10:01:58;;;;;;;10.15;2.60;;;;;;;;;;5102834;28;20027;-48
2021/06/21 10:04:24;;;;;;;3.80;2.60;;;;;;;;;;5102996;28;20031;-47
2021/06/21 10:06:49;;;;;;;5.97;3.67;;;;;;;;;;5099630;27;20427;-48
2021/06/21 10:09:15;;;;;;;4.85;2.38;;;;;;;;;;5094462;28;20217;-38
2021/06/21 10:11:45;;;;;;;2.85;1.95;;;;;;;;;;5100191;28;20023;-40
2021/06/21 10:14:12;;;;;;;10.88;2.88;;;;;;;;;;5110910;28;20027;-39
2021/06/21 10:16:38;;;;;;;12.32;1.67;;;;;;;;;;5110695;28;20035;-55
2021/06/21 10:19:04;;;;;;;2.25;1.35;;;;;;;;;;5101782;27;20020;-36
2021/06/21 10:21:30;;;;;;;9.55;2.00;;;;;;;;;;5096167;28;20141;-35
2021/06/21 10:23:56;;;;;;;9.07;1.30;;;;;;;;;;5097340;28;20087;-35
2021/06/21 10:26:21;;;;;;;1.90;1.42;;;;;;;;;;5096430;28;20469;-35
2021/06/21 10:28:47;;;;;;;7.07;1.88;;;;;;;;;;5103498;28;20103;-35
2021/06/21 10:31:13;;;;;;;7.35;3.03;;;;;;;;;;5101756;28;20028;-34
2021/06/21 10:33:38;;;;;;;12.18;2.40;;;;;;;;;;5096662;28;20028;-55
2021/06/21 10:36:05;;;;;;;5.05;2.25;;;;;;;;;;5100515;27;20082;-55
2021/06/21 10:38:30;;;;;;;3.65;2.25;;;;;;;;;;5093156;28;20538;-55
2021/06/21 10:41:01;;;;;;;5.18;2.72;;;;;;;;;;5098981;28;20123;-55
2021/06/21 10:43:49;;;;;;;3.67;1.85;;;;;;;;;;5095376;28;20031;-52
2021/06/21 10:46:14;;;;;;;3.90;1.65;;;;;;;;;;5107405;27;20110;-55
2021/06/21 10:48:58;;;;;;;4.88;2.50;;;;;;;;;;5115635;27;20099;-55
2021/06/21 10:51:34;;;;;;;33.97;23.65;;;;;;;;;;5108944;27;20102;-55
2021/06/21 10:54:00;;;;;;;7.93;3.47;;;;;;;;;;5098340;27;20143;-55
2021/06/21 10:56:44;;;;;;;4.13;1.40;;;;;;;;;;5100189;27;20185;-55
2021/06/21 10:59:13;;;;;;;6.97;2.35;;;;;;;;;;5101255;27;20025;-52
2021/06/21 11:01:45;;;;;;;10.30;3.45;;;;;;;;;;5100875;27;20051;-54
2021/06/21 11:04:10;;;;;;;2.15;1.38;;;;;;;;;;5100635;27;20039;-55
2021/06/21 11:06:36;;;;;;;6.63;2.20;;;;;;;;;;5098392;27;20079;-53
2021/06/21 11:09:03;;;;;;;7.38;1.00;;;;;;;;;;5107053;27;20019;-53
2021/06/21 11:11:34;;;;;;;5.10;2.33;;;;;;;;;;5103637;27;20115;-53
2021/06/21 11:14:09;;;;;;;10.75;2.15;;;;;;;;;;5108723;27;20061;-58
2021/06/21 11:16:34;;;;;;;7.18;2.13;;;;;;;;;;5102099;27;20035;-54
2021/06/21 11:19:21;;;;;;;6.63;2.65;;;;;;;;;;5105494;27;20028;-51
2021/06/21 11:21:54;;;;;;;4.20;2.00;;;;;;;;;;5101895;27;20131;-56
2021/06/21 11:24:38;;;;;;;7.18;2.22;;;;;;;;;;5100830;27;20150;-54
2021/06/21 11:27:11;;;;;;;9.43;2.67;;;;;;;;;;5103057;27;20058;-54
2021/06/21 11:29:41;;;;;;;6.50;2.72;;;;;;;;;;5102595;27;20024;-51
2021/06/21 11:32:07;;;;;;;4.07;1.48;;;;;;;;;;5099710;27;20019;-56
2021/06/21 11:34:44;;;;;;;11.82;2.72;;;;;;;;;;5099509;27;20054;-55
2021/06/21 11:37:28;;;;;;;2.65;1.45;;;;;;;;;;5098910;27;20030;-55
2021/06/21 11:40:12;;;;;;;3.00;1.38;;;;;;;;;;5102454;27;20363;-56
2021/06/21 11:42:37;;;;;;;7.93;3.05;;;;;;;;;;5106839;27;20118;-48
2021/06/21 11:45:03;;;;;;;10.07;7.90;;;;;;;;;;5105798;27;20102;-51
2021/06/21 11:47:34;;;;;;;130.40;94.07;;;;;;;;;;5096062;27;20055;-47
2021/06/21 11:50:09;;;;;;;15.63;9.73;;;;;;;;;;5100918;27;20045;-45
2021/06/21 11:52:35;;;;;;;54.80;34.10;;;;;;;;;;5102131;27;20110;-48
2021/06/21 11:55:16;;;;;;;26.75;12.15;;;;;;;;;;5098948;27;20114;-49
2021/06/21 11:57:46;;;;;;;17.17;7.25;;;;;;;;;;5103047;27;20061;-49
2021/06/21 12:00:12;;;;;;;20.60;8.52;;;;;;;;;;5095985;27;20394;-51
2021/06/21 12:02:37;;;;;;;8.85;4.55;;;;;;;;;;5105153;27;20452;-47
2021/06/21 12:05:07;;;;;;;7.30;3.45;;;;;;;;;;5112451;27;20024;-43
2021/06/21 12:07:34;;;;;;;5.80;3.78;;;;;;;;;;5102080;27;20075;-44
2021/06/21 12:10:00;;;;;;;10.18;2.95;;;;;;;;;;5097948;27;20031;-44
2021/06/21 12:12:27;;;;;;;4.65;2.78;;;;;;;;;;5099854;27;20019;-47
2021/06/21 12:14:53;;;;;;;7.65;3.13;;;;;;;;;;5105266;27;20489;-44
2021/06/21 12:17:25;;;;;;;8.00;3.92;;;;;;;;;;5101476;27;20028;-48
2021/06/21 12:19:59;;;;;;;5.75;2.40;;;;;;;;;;5101720;27;20047;-49
2021/06/21 12:22:25;;;;;;;14.85;4.93;;;;;;;;;;5100144;27;20042;-52
2021/06/21 12:24:50;;;;;;;12.02;3.85;;;;;;;;;;5101507;27;20020;-54
2021/06/21 12:27:15;;;;;;;26.85;5.53;;;;;;;;;;5097188;27;20051;-53
2021/06/21 12:29:41;;;;;;;13.73;3.72;;;;;;;;;;5101679;28;20393;-48
2021/06/21 12:32:08;;;;;;;16.58;3.40;;;;;;;;;;5107274;27;20027;-49
2021/06/21 12:34:39;;;;;;;9.00;2.90;;;;;;;;;;5109185;27;20099;-46
2021/06/21 12:37:31;;;;;;;8.23;4.00;;;;;;;;;;5104853;27;20037;-48
2021/06/21 12:39:59;;;;;;;15.85;3.08;;;;;;;;;;5103942;27;20036;-45
2021/06/21 12:42:26;;;;;;;10.98;2.75;;;;;;;;;;5104597;27;20055;-50
2021/06/21 12:44:52;;;;;;;5.35;3.10;;;;;;;;;;5099069;27;20019;-48
2021/06/21 12:47:25;;;;;;;7.00;3.50;;;;;;;;;;5096175;28;20020;-46
2021/06/21 12:49:52;;;;;;;6.80;2.17;;;;;;;;;;5094661;27;20019;-49
2021/06/21 12:52:19;;;;;;;21.63;2.72;;;;;;;;;;5096405;27;20055;-46
2021/06/21 12:54:44;;;;;;;6.15;2.47;;;;;;;;;;5100635;27;20026;-46
2021/06/21 12:57:09;;;;;;;13.65;2.72;;;;;;;;;;5099162;27;20031;-54
2021/06/21 12:59:41;;;;;;;7.88;2.78;;;;;;;;;;5107164;27;20024;-56
2021/06/21 13:02:17;;;;;;;10.30;3.08;;;;;;;;;;5102022;27;20034;-49
2021/06/21 13:04:53;;;;;;;8.20;3.70;;;;;;;;;;5100477;27;20020;-50
2021/06/21 13:07:23;;;;;;;8.93;2.20;;;;;;;;;;5093729;28;20050;-51
2021/06/21 13:09:49;;;;;;;11.57;2.55;;;;;;;;;;5098163;27;20026;-55
2021/06/21 13:12:33;;;;;;;6.78;2.45;;;;;;;;;;5098941;27;20026;-53
2021/06/21 13:15:05;;;;;;;6.95;4.05;;;;;;;;;;5102220;27;20045;-52
2021/06/21 13:17:30;;;;;;;4.35;2.33;;;;;;;;;;5100361;27;20028;-51
2021/06/21 13:19:57;;;;;;;3.83;2.08;;;;;;;;;;5095756;27;20773;-52
2021/06/21 13:22:27;;;;;;;4.68;1.48;;;;;;;;;;5094958;28;20028;-52
2021/06/21 13:24:52;;;;;;;20.10;2.90;;;;;;;;;;5096036;27;20019;-49
2021/06/21 13:27:19;;;;;;;3.10;1.75;;;;;;;;;;5097541;27;20070;-53
2021/06/21 13:29:44;;;;;;;6.75;2.90;;;;;;;;;;5100198;27;20008;-56
2021/06/21 13:32:18;;;;;;;3.72;1.73;;;;;;;;;;5104995;27;20020;-55
2021/06/21 13:34:45;;;;;;;4.38;2.88;;;;;;;;;;5100673;27;20027;-53
2021/06/21 13:37:11;;;;;;;7.20;2.13;;;;;;;;;;5101633;27;20034;-56
2021/06/21 13:39:38;;;;;;;9.52;1.95;;;;;;;;;;5098692;27;20510;-45
2021/06/21 13:42:05;;;;;;;11.55;2.30;;;;;;;;;;5102210;27;20117;-46
2021/06/21 13:44:31;;;;;;;2.83;1.30;;;;;;;;;;5104125;27;20490;-44
2021/06/21 13:46:56;;;;;;;14.52;2.80;;;;;;;;;;5100010;27;20050;-45
2021/06/21 13:49:24;;;;;;;7.82;2.33;;;;;;;;;;5102227;27;20019;-51
2021/06/21 13:52:11;;;;;;;3.38;1.25;;;;;;;;;;5102255;27;20019;-45
2021/06/21 13:54:36;;;;;;;6.90;2.15;;;;;;;;;;5104315;28;20016;-49
2021/06/21 13:57:05;;;;;;;4.38;1.60;;;;;;;;;;5102081;27;20645;-48
2021/06/21 13:59:44;;;;;;;3.30;2.05;;;;;;;;;;5098480;28;20053;-53
2021/06/21 14:02:09;;;;;;;8.27;1.58;;;;;;;;;;5096978;28;20054;-53
2021/06/21 14:04:35;;;;;;;4.28;1.15;;;;;;;;;;5099794;28;20065;-45
2021/06/21 14:07:00;;;;;;;3.78;1.38;;;;;;;;;;5094987;28;20618;-50
2021/06/21 14:09:25;;;;;;;3.30;1.35;;;;;;;;;;5093432;28;20450;-48
2021/06/21 14:11:51;;;;;;;8.25;1.70;;;;;;;;;;5094980;28;20069;-46
2021/06/21 14:14:16;;;;;;;9.27;2.30;;;;;;;;;;5099153;28;20602;-48
2021/06/21 14:16:41;;;;;;;5.78;1.48;;;;;;;;;;5098030;28;20024;-47
2021/06/21 14:19:07;;;;;;;1.98;1.10;;;;;;;;;;5097631;28;20056;-48
2021/06/21 14:21:34;;;;;;;1.63;0.65;;;;;;;;;;5103763;27;20023;-53
2021/06/21 14:23:59;;;;;;;2.15;0.88;;;;;;;;;;5103453;28;20035;-56
2021/06/21 14:26:25;;;;;;;4.60;1.83;;;;;;;;;;5101261;28;20103;-60
2021/06/21 14:28:51;;;;;;;3.38;1.70;;;;;;;;;;5101749;27;20020;-57
2021/06/21 14:31:16;;;;;;;5.75;1.27;;;;;;;;;;5102856;27;20037;-58
2021/06/21 14:33:41;;;;;;;1.55;1.02;;;;;;;;;;5102585;27;20051;-57
2021/06/21 14:36:07;;;;;;;3.15;1.17;;;;;;;;;;5101142;27;20061;-55
2021/06/21 14:38:33;;;;;;;3.53;1.35;;;;;;;;;;5099234;27;20023;-57
2021/06/21 14:40:59;;;;;;;2.17;1.30;;;;;;;;;;5098835;27;20445;-57